sensor_id;sensor_type;location;lat;lon;timestamp;pressure;altitude;pressure_sealevel;temperature;humidity
57708;BME280;43540;51.690;9.562;2023-07-24T10:39:56;97950.56;;;24.00;74.52
57708;BME280;43540;51.690;9.562;2023-07-24T10:42:23;97939.72;;;23.90;74.82
57708;BME280;43540;51.690;9.562;2023-07-24T10:44:49;97954.69;;;24.07;76.13
57708;BME280;43540;51.690;9.562;2023-07-24T10:47:16;97954.16;;;23.89;74.01
57708;BME280;43540;51.690;9.562;2023-07-24T10:49:48;97955.63;;;23.63;76.67
57708;BME280;43540;51.690;9.562;2023-07-24T10:52:15;97944.50;;;23.88;76.74
57708;BME280;43540;51.690;9.562;2023-07-24T10:54:42;97897.63;;;23.85;75.72
57708;BME280;43540;51.690;9.562;2023-07-24T10:57:08;97959.78;;;24.48;76.67
57708;BME280;43540;51.690;9.562;2023-07-24T10:59:39;97901.44;;;23.89;73.18
57708;BME280;43540;51.690;9.562;2023-07-24T11:02:07;97972.59;;;24.24;76.62
57708;BME280;43540;51.690;9.562;2023-07-24T11:04:34;97972.34;;;24.25;78.73
57708;BME280;43540;51.690;9.562;2023-07-24T11:07:01;97925.47;;;23.67;78.82
57708;BME280;43540;51.690;9.562;2023-07-24T11:09:35;97901.63;;;23.49;82.07
57708;BME280;43540;51.690;9.562;2023-07-24T11:12:13;97945.59;;;23.70;88.31
57708;BME280;43540;51.690;9.562;2023-07-24T11:14:50;97976.78;;;23.81;78.56
57708;BME280;43540;51.690;9.562;2023-07-24T11:17:17;97945.44;;;23.60;77.22
57708;BME280;43540;51.690;9.562;2023-07-24T11:19:43;97944.69;;;23.81;76.03
57708;BME280;43540;51.690;9.562;2023-07-24T11:22:10;97969.69;;;24.08;73.60
57708;BME280;43540;51.690;9.562;2023-07-24T11:24:45;97970.94;;;24.23;74.37
57708;BME280;43540;51.690;9.562;2023-07-24T11:27:13;97949.72;;;24.16;78.09
57708;BME280;43540;51.690;9.562;2023-07-24T11:29:47;97975.72;;;24.37;73.17
57708;BME280;43540;51.690;9.562;2023-07-24T11:32:19;97943.56;;;24.16;76.81
57708;BME280;43540;51.690;9.562;2023-07-24T11:34:47;97950.88;;;24.03;70.24
57708;BME280;43540;51.690;9.562;2023-07-24T11:37:15;97958.03;;;23.98;67.41
57708;BME280;43540;51.690;9.562;2023-07-24T11:39:42;97936.72;;;23.86;66.77
57708;BME280;43540;51.690;9.562;2023-07-24T11:42:08;97961.66;;;24.08;68.21
57708;BME280;43540;51.690;9.562;2023-07-24T11:44:35;97931.25;;;24.15;68.72
57708;BME280;43540;51.690;9.562;2023-07-24T11:49:30;97946.28;;;24.86;72.00
57708;BME280;43540;51.690;9.562;2023-07-24T11:52:05;97924.84;;;24.86;66.89
57708;BME280;43540;51.690;9.562;2023-07-24T11:54:35;97939.59;;;25.06;65.31
57708;BME280;43540;51.690;9.562;2023-07-24T11:57:02;97919.91;;;24.73;63.15
57708;BME280;43540;51.690;9.562;2023-07-24T11:59:37;97894.38;;;24.65;65.27
57708;BME280;43540;51.690;9.562;2023-07-24T12:02:04;97839.97;;;24.38;64.23
57708;BME280;43540;51.690;9.562;2023-07-24T12:04:31;97888.03;;;24.50;64.25
57708;BME280;43540;51.690;9.562;2023-07-24T12:06:57;97885.22;;;24.18;65.80
57708;BME280;43540;51.690;9.562;2023-07-24T12:09:29;97881.09;;;24.10;63.07
57708;BME280;43540;51.690;9.562;2023-07-24T12:11:58;97904.78;;;24.18;66.55
57708;BME280;43540;51.690;9.562;2023-07-24T12:14:24;97811.34;;;23.56;66.80
57708;BME280;43540;51.690;9.562;2023-07-24T12:17:04;97894.59;;;24.37;66.46
57708;BME280;43540;51.690;9.562;2023-07-24T12:19:35;97882.53;;;24.34;69.98
57708;BME280;43540;51.690;9.562;2023-07-24T12:22:02;97872.72;;;24.23;69.50
57708;BME280;43540;51.690;9.562;2023-07-24T12:24:30;97846.56;;;24.08;69.96
57708;BME280;43540;51.690;9.562;2023-07-24T12:26:56;97869.16;;;24.18;71.87
57708;BME280;43540;51.690;9.562;2023-07-24T12:29:23;97871.97;;;24.28;69.69
57708;BME280;43540;51.690;9.562;2023-07-24T12:31:49;97868.47;;;24.27;68.19
57708;BME280;43540;51.690;9.562;2023-07-24T12:34:16;97845.94;;;24.23;66.73
57708;BME280;43540;51.690;9.562;2023-07-24T12:36:42;97871.03;;;24.61;67.10
57708;BME280;43540;51.690;9.562;2023-07-24T12:39:09;97830.59;;;24.62;64.36
57708;BME280;43540;51.690;9.562;2023-07-24T12:41:36;97846.78;;;24.78;69.87
57708;BME280;43540;51.690;9.562;2023-07-24T12:44:02;97769.59;;;24.21;68.70
57708;BME280;43540;51.690;9.562;2023-07-24T12:46:29;97821.41;;;24.53;67.55
57708;BME280;43540;51.690;9.562;2023-07-24T12:48:56;97838.28;;;24.54;73.99
57708;BME280;43540;51.690;9.562;2023-07-24T12:51:22;97834.16;;;24.46;64.36
57708;BME280;43540;51.690;9.562;2023-07-24T12:53:49;97816.78;;;24.27;65.66
57708;BME280;43540;51.690;9.562;2023-07-24T12:56:35;97833.50;;;24.34;70.51
57708;BME280;43540;51.690;9.562;2023-07-24T12:59:02;97836.75;;;24.36;66.71
57708;BME280;43540;51.690;9.562;2023-07-24T13:01:29;97832.09;;;24.53;71.09
57708;BME280;43540;51.690;9.562;2023-07-24T13:03:56;97825.34;;;24.78;70.64
57708;BME280;43540;51.690;9.562;2023-07-24T13:06:24;97837.34;;;24.97;66.96
57708;BME280;43540;51.690;9.562;2023-07-24T13:08:50;97810.75;;;24.90;70.14
57708;BME280;43540;51.690;9.562;2023-07-24T13:11:18;97765.66;;;24.28;66.37
57708;BME280;43540;51.690;9.562;2023-07-24T13:13:44;97779.75;;;24.19;65.90
57708;BME280;43540;51.690;9.562;2023-07-24T13:16:11;97815.34;;;24.41;68.18
57708;BME280;43540;51.690;9.562;2023-07-24T13:18:37;97787.91;;;24.29;66.79
57708;BME280;43540;51.690;9.562;2023-07-24T13:21:04;97790.72;;;24.17;67.62
57708;BME280;43540;51.690;9.562;2023-07-24T13:23:32;97762.00;;;24.12;67.10
57708;BME280;43540;51.690;9.562;2023-07-24T13:25:59;97765.25;;;24.36;73.67
57708;BME280;43540;51.690;9.562;2023-07-24T13:28:25;97744.75;;;24.84;74.78
57708;BME280;43540;51.690;9.562;2023-07-24T13:30:52;97742.88;;;24.80;67.24
57708;BME280;43540;51.690;9.562;2023-07-24T13:33:18;97709.66;;;24.81;65.03
57708;BME280;43540;51.690;9.562;2023-07-24T13:35:45;97748.22;;;24.80;70.74
57708;BME280;43540;51.690;9.562;2023-07-24T13:38:12;97753.94;;;24.93;67.36
57708;BME280;43540;51.690;9.562;2023-07-24T13:40:40;97742.50;;;25.03;65.00
57708;BME280;43540;51.690;9.562;2023-07-24T13:43:06;97642.38;;;24.13;61.46
57708;BME280;43540;51.690;9.562;2023-07-24T13:45:32;97715.53;;;24.46;62.13
57708;BME280;43540;51.690;9.562;2023-07-24T13:47:59;97622.03;;;23.85;66.52
57708;BME280;43540;51.690;9.562;2023-07-24T13:50:25;97682.66;;;24.23;65.16
57708;BME280;43540;51.690;9.562;2023-07-24T13:52:52;97700.47;;;24.39;65.63
57708;BME280;43540;51.690;9.562;2023-07-24T13:55:18;97699.06;;;24.32;65.23
57708;BME280;43540;51.690;9.562;2023-07-24T13:57:45;97709.44;;;24.28;65.65
57708;BME280;43540;51.690;9.562;2023-07-24T14:00:12;97720.97;;;24.29;72.40
57708;BME280;43540;51.690;9.562;2023-07-24T14:02:38;97714.25;;;24.26;74.31
57708;BME280;43540;51.690;9.562;2023-07-24T14:05:06;97687.06;;;24.12;70.78
57708;BME280;43540;51.690;9.562;2023-07-24T14:07:32;97657.88;;;23.84;69.92
57708;BME280;43540;51.690;9.562;2023-07-24T14:09:59;97632.88;;;23.68;74.63
57708;BME280;43540;51.690;9.562;2023-07-24T14:12:25;97660.22;;;23.75;78.21
57708;BME280;43540;51.690;9.562;2023-07-24T14:14:52;97678.56;;;23.89;77.45
57708;BME280;43540;51.690;9.562;2023-07-24T14:17:18;97646.34;;;23.56;78.91
57708;BME280;43540;51.690;9.562;2023-07-24T14:19:45;97635.34;;;23.53;80.13
57708;BME280;43540;51.690;9.562;2023-07-24T14:22:12;97689.66;;;23.59;81.15
57708;BME280;43540;51.690;9.562;2023-07-24T14:24:38;97787.94;;;23.46;74.01
57708;BME280;43540;51.690;9.562;2023-07-24T14:27:05;97911.69;;;21.22;97.17
57708;BME280;43540;51.690;9.562;2023-07-24T14:29:32;98009.75;;;17.73;100.00
57708;BME280;43540;51.690;9.562;2023-07-24T14:31:58;97900.38;;;15.70;100.00
57708;BME280;43540;51.690;9.562;2023-07-24T14:34:25;97923.81;;;15.30;100.00
57708;BME280;43540;51.690;9.562;2023-07-24T14:36:53;97891.91;;;15.03;100.00
57708;BME280;43540;51.690;9.562;2023-07-24T14:39:20;97876.72;;;14.84;100.00
57708;BME280;43540;51.690;9.562;2023-07-24T14:41:47;97881.69;;;14.94;100.00
57708;BME280;43540;51.690;9.562;2023-07-24T14:44:13;97895.53;;;15.24;100.00
57708;BME280;43540;51.690;9.562;2023-07-24T14:46:40;97844.69;;;15.15;100.00
57708;BME280;43540;51.690;9.562;2023-07-24T14:49:06;97762.00;;;15.01;100.00
57708;BME280;43540;51.690;9.562;2023-07-24T14:51:33;97825.88;;;15.87;100.00
57708;BME280;43540;51.690;9.562;2023-07-24T14:53:59;97895.53;;;16.69;100.00
57708;BME280;43540;51.690;9.562;2023-07-24T14:56:26;97813.28;;;16.64;100.00
57708;BME280;43540;51.690;9.562;2023-07-24T14:59:05;97837.38;;;16.95;100.00
57708;BME280;43540;51.690;9.562;2023-07-24T15:01:31;97823.50;;;17.33;100.00
57708;BME280;43540;51.690;9.562;2023-07-24T15:03:59;97774.22;;;17.12;100.00
57708;BME280;43540;51.690;9.562;2023-07-24T15:06:25;97772.34;;;17.39;100.00
57708;BME280;43540;51.690;9.562;2023-07-24T15:08:52;97762.34;;;17.48;100.00
57708;BME280;43540;51.690;9.562;2023-07-24T15:11:22;97785.34;;;18.50;100.00
57708;BME280;43540;51.690;9.562;2023-07-24T15:13:49;97787.69;;;18.65;100.00
57708;BME280;43540;51.690;9.562;2023-07-24T15:16:16;97787.28;;;18.61;100.00
57708;BME280;43540;51.690;9.562;2023-07-24T15:18:42;97816.78;;;18.85;100.00
57708;BME280;43540;51.690;9.562;2023-07-24T15:21:10;97781.44;;;18.53;100.00
57708;BME280;43540;51.690;9.562;2023-07-24T15:23:36;97818.81;;;18.83;100.00
57708;BME280;43540;51.690;9.562;2023-07-24T15:26:03;97818.25;;;19.06;100.00
57708;BME280;43540;51.690;9.562;2023-07-24T15:28:30;97809.78;;;18.90;100.00
57708;BME280;43540;51.690;9.562;2023-07-24T15:30:56;97819.69;;;19.01;100.00
57708;BME280;43540;51.690;9.562;2023-07-24T15:33:23;97814.53;;;18.82;100.00
57708;BME280;43540;51.690;9.562;2023-07-24T15:35:49;97845.97;;;19.10;100.00
57708;BME280;43540;51.690;9.562;2023-07-24T15:38:16;97784.22;;;18.96;100.00
57708;BME280;43540;51.690;9.562;2023-07-24T15:40:43;97813.75;;;19.49;100.00
57708;BME280;43540;51.690;9.562;2023-07-24T15:43:09;97843.97;;;19.73;100.00
57708;BME280;43540;51.690;9.562;2023-07-24T15:45:36;97829.75;;;19.86;100.00
57708;BME280;43540;51.690;9.562;2023-07-24T15:48:03;97853.22;;;19.89;100.00
57708;BME280;43540;51.690;9.562;2023-07-24T15:50:29;97873.88;;;20.42;100.00
57708;BME280;43540;51.690;9.562;2023-07-24T15:52:56;97808.19;;;20.24;100.00
57708;BME280;43540;51.690;9.562;2023-07-24T15:55:22;97851.28;;;20.63;100.00
57708;BME280;43540;51.690;9.562;2023-07-24T15:57:49;97833.25;;;20.65;100.00
57708;BME280;43540;51.690;9.562;2023-07-24T16:00:15;97831.38;;;20.65;100.00
57708;BME280;43540;51.690;9.562;2023-07-24T16:02:42;97797.91;;;19.98;100.00
57708;BME280;43540;51.690;9.562;2023-07-24T16:05:20;97866.63;;;20.79;100.00
57708;BME280;43540;51.690;9.562;2023-07-24T16:07:47;97828.69;;;20.95;100.00
57708;BME280;43540;51.690;9.562;2023-07-24T16:10:15;97860.16;;;21.28;100.00
57708;BME280;43540;51.690;9.562;2023-07-24T16:12:44;97851.47;;;21.33;100.00
57708;BME280;43540;51.690;9.562;2023-07-24T16:15:11;97822.00;;;21.05;100.00
